sensor_id;sensor_type;location;lat;lon;timestamp;P1;durP1;ratioP1;P2;durP2;ratioP2
67819;SDS011;54618;52.018;5.576;2023-02-01T00:01:54;5.22;;;1.70;;
67819;SDS011;54618;52.018;5.576;2023-02-01T00:04:20;5.88;;;1.48;;
67819;SDS011;54618;52.018;5.576;2023-02-01T00:06:46;6.25;;;1.50;;
67819;SDS011;54618;52.018;5.576;2023-02-01T00:09:12;5.47;;;1.67;;
67819;SDS011;54618;52.018;5.576;2023-02-01T00:11:37;4.80;;;1.60;;
67819;SDS011;54618;52.018;5.576;2023-02-01T00:14:03;5.40;;;1.35;;
67819;SDS011;54618;52.018;5.576;2023-02-01T00:16:29;4.40;;;1.38;;
67819;SDS011;54618;52.018;5.576;2023-02-01T00:19:00;5.43;;;1.60;;
67819;SDS011;54618;52.018;5.576;2023-02-01T00:21:28;4.47;;;1.35;;
67819;SDS011;54618;52.018;5.576;2023-02-01T00:23:55;4.60;;;1.33;;
67819;SDS011;54618;52.018;5.576;2023-02-01T00:26:31;4.40;;;1.42;;
67819;SDS011;54618;52.018;5.576;2023-02-01T00:28:58;4.30;;;1.70;;
67819;SDS011;54618;52.018;5.576;2023-02-01T00:31:24;6.40;;;1.50;;
67819;SDS011;54618;52.018;5.576;2023-02-01T00:33:50;4.28;;;1.35;;
67819;SDS011;54618;52.018;5.576;2023-02-01T00:36:16;5.75;;;1.50;;
67819;SDS011;54618;52.018;5.576;2023-02-01T00:38:42;4.38;;;1.55;;
67819;SDS011;54618;52.018;5.576;2023-02-01T00:41:11;6.68;;;1.50;;
67819;SDS011;54618;52.018;5.576;2023-02-01T00:43:42;5.85;;;1.77;;
67819;SDS011;54618;52.018;5.576;2023-02-01T00:46:08;6.50;;;1.70;;
67819;SDS011;54618;52.018;5.576;2023-02-01T00:48:34;5.68;;;1.50;;
67819;SDS011;54618;52.018;5.576;2023-02-01T00:51:01;6.18;;;1.45;;
67819;SDS011;54618;52.018;5.576;2023-02-01T00:53:28;3.97;;;1.40;;
67819;SDS011;54618;52.018;5.576;2023-02-01T00:55:54;4.70;;;1.20;;
67819;SDS011;54618;52.018;5.576;2023-02-01T00:58:19;5.88;;;1.77;;
67819;SDS011;54618;52.018;5.576;2023-02-01T01:00:45;4.15;;;1.33;;
67819;SDS011;54618;52.018;5.576;2023-02-01T01:03:11;3.88;;;1.20;;
67819;SDS011;54618;52.018;5.576;2023-02-01T01:05:46;4.28;;;1.58;;
67819;SDS011;54618;52.018;5.576;2023-02-01T01:08:13;6.07;;;1.63;;
67819;SDS011;54618;52.018;5.576;2023-02-01T01:10:41;4.80;;;1.40;;
67819;SDS011;54618;52.018;5.576;2023-02-01T01:13:08;6.63;;;1.52;;
67819;SDS011;54618;52.018;5.576;2023-02-01T01:15:37;5.07;;;1.30;;
67819;SDS011;54618;52.018;5.576;2023-02-01T01:18:04;5.10;;;1.40;;
67819;SDS011;54618;52.018;5.576;2023-02-01T01:20:30;5.18;;;1.55;;
67819;SDS011;54618;52.018;5.576;2023-02-01T01:22:56;6.50;;;1.63;;
67819;SDS011;54618;52.018;5.576;2023-02-01T01:25:21;7.15;;;1.55;;
67819;SDS011;54618;52.018;5.576;2023-02-01T01:27:47;4.95;;;1.50;;
67819;SDS011;54618;52.018;5.576;2023-02-01T01:30:12;5.57;;;1.48;;
67819;SDS011;54618;52.018;5.576;2023-02-01T01:32:38;5.25;;;1.40;;
67819;SDS011;54618;52.018;5.576;2023-02-01T01:35:04;6.10;;;1.52;;
67819;SDS011;54618;52.018;5.576;2023-02-01T01:37:30;4.80;;;1.60;;
67819;SDS011;54618;52.018;5.576;2023-02-01T01:39:56;3.88;;;1.20;;
67819;SDS011;54618;52.018;5.576;2023-02-01T01:42:22;5.63;;;1.15;;
67819;SDS011;54618;52.018;5.576;2023-02-01T01:44:58;5.00;;;1.60;;
67819;SDS011;54618;52.018;5.576;2023-02-01T01:47:25;6.45;;;1.40;;
67819;SDS011;54618;52.018;5.576;2023-02-01T01:50:18;5.30;;;1.38;;
67819;SDS011;54618;52.018;5.576;2023-02-01T01:52:49;5.55;;;1.38;;
67819;SDS011;54618;52.018;5.576;2023-02-01T01:55:17;4.82;;;1.48;;
67819;SDS011;54618;52.018;5.576;2023-02-01T01:57:46;5.75;;;1.30;;
67819;SDS011;54618;52.018;5.576;2023-02-01T02:00:20;5.93;;;1.35;;
67819;SDS011;54618;52.018;5.576;2023-02-01T02:02:47;4.38;;;1.20;;
67819;SDS011;54618;52.018;5.576;2023-02-01T02:05:15;6.20;;;1.52;;
67819;SDS011;54618;52.018;5.576;2023-02-01T02:07:43;7.25;;;1.63;;
67819;SDS011;54618;52.018;5.576;2023-02-01T02:10:13;6.53;;;1.70;;
67819;SDS011;54618;52.018;5.576;2023-02-01T02:12:40;4.00;;;1.20;;
67819;SDS011;54618;52.018;5.576;2023-02-01T02:15:08;5.30;;;1.58;;
67819;SDS011;54618;52.018;5.576;2023-02-01T02:17:55;5.47;;;1.42;;
67819;SDS011;54618;52.018;5.576;2023-02-01T02:20:46;5.60;;;1.50;;
67819;SDS011;54618;52.018;5.576;2023-02-01T02:26:03;4.15;;;1.30;;
67819;SDS011;54618;52.018;5.576;2023-02-01T02:40:04;5.55;;;1.40;;
67819;SDS011;54618;52.018;5.576;2023-02-01T02:42:39;5.05;;;1.40;;
67819;SDS011;54618;52.018;5.576;2023-02-01T02:45:42;4.82;;;1.40;;
67819;SDS011;54618;52.018;5.576;2023-02-01T02:48:38;5.80;;;1.33;;
67819;SDS011;54618;52.018;5.576;2023-02-01T02:51:32;3.65;;;1.10;;
67819;SDS011;54618;52.018;5.576;2023-02-01T02:54:26;5.32;;;1.30;;
67819;SDS011;54618;52.018;5.576;2023-02-01T02:57:12;5.00;;;1.10;;
67819;SDS011;54618;52.018;5.576;2023-02-01T03:00:00;4.70;;;1.33;;
67819;SDS011;54618;52.018;5.576;2023-02-01T03:02:48;4.55;;;1.30;;
67819;SDS011;54618;52.018;5.576;2023-02-01T03:05:36;4.32;;;1.40;;
67819;SDS011;54618;52.018;5.576;2023-02-01T03:08:10;4.18;;;1.20;;
67819;SDS011;54618;52.018;5.576;2023-02-01T03:11:00;4.30;;;1.35;;
67819;SDS011;54618;52.018;5.576;2023-02-01T03:16:18;5.03;;;1.40;;
67819;SDS011;54618;52.018;5.576;2023-02-01T03:19:02;4.25;;;1.20;;
67819;SDS011;54618;52.018;5.576;2023-02-01T03:21:31;4.22;;;1.30;;
67819;SDS011;54618;52.018;5.576;2023-02-01T03:24:11;3.80;;;1.10;;
67819;SDS011;54618;52.018;5.576;2023-02-01T03:26:44;3.78;;;1.40;;
67819;SDS011;54618;52.018;5.576;2023-02-01T03:29:18;4.53;;;1.50;;
67819;SDS011;54618;52.018;5.576;2023-02-01T03:31:49;4.60;;;1.35;;
67819;SDS011;54618;52.018;5.576;2023-02-01T03:34:15;4.53;;;1.20;;
67819;SDS011;54618;52.018;5.576;2023-02-01T03:36:51;4.43;;;1.20;;
67819;SDS011;54618;52.018;5.576;2023-02-01T03:39:31;4.05;;;1.20;;
67819;SDS011;54618;52.018;5.576;2023-02-01T03:42:02;4.05;;;1.08;;
67819;SDS011;54618;52.018;5.576;2023-02-01T03:44:46;4.20;;;1.23;;
67819;SDS011;54618;52.018;5.576;2023-02-01T03:47:25;4.18;;;1.23;;
67819;SDS011;54618;52.018;5.576;2023-02-01T03:52:30;4.28;;;1.10;;
67819;SDS011;54618;52.018;5.576;2023-02-01T03:55:16;4.22;;;1.10;;
67819;SDS011;54618;52.018;5.576;2023-02-01T03:58:07;3.60;;;1.13;;
67819;SDS011;54618;52.018;5.576;2023-02-01T04:00:43;5.15;;;1.30;;
67819;SDS011;54618;52.018;5.576;2023-02-01T04:03:14;4.35;;;1.20;;
67819;SDS011;54618;52.018;5.576;2023-02-01T04:05:40;3.25;;;1.00;;
67819;SDS011;54618;52.018;5.576;2023-02-01T04:08:05;4.68;;;1.15;;
67819;SDS011;54618;52.018;5.576;2023-02-01T04:10:31;5.20;;;1.30;;
67819;SDS011;54618;52.018;5.576;2023-02-01T04:12:56;4.85;;;1.17;;
67819;SDS011;54618;52.018;5.576;2023-02-01T04:15:22;3.40;;;1.20;;
67819;SDS011;54618;52.018;5.576;2023-02-01T04:17:47;3.25;;;1.10;;
67819;SDS011;54618;52.018;5.576;2023-02-01T04:20:13;4.97;;;1.05;;
67819;SDS011;54618;52.018;5.576;2023-02-01T04:22:38;4.93;;;1.20;;
67819;SDS011;54618;52.018;5.576;2023-02-01T04:25:04;3.33;;;1.00;;
67819;SDS011;54618;52.018;5.576;2023-02-01T04:27:30;3.40;;;0.95;;
67819;SDS011;54618;52.018;5.576;2023-02-01T04:29:56;4.55;;;1.20;;
67819;SDS011;54618;52.018;5.576;2023-02-01T04:32:22;4.40;;;1.13;;
67819;SDS011;54618;52.018;5.576;2023-02-01T04:34:47;3.83;;;1.20;;
67819;SDS011;54618;52.018;5.576;2023-02-01T04:37:13;3.92;;;1.20;;
67819;SDS011;54618;52.018;5.576;2023-02-01T04:39:38;5.82;;;1.25;;
67819;SDS011;54618;52.018;5.576;2023-02-01T04:42:04;3.85;;;0.98;;
67819;SDS011;54618;52.018;5.576;2023-02-01T04:44:29;3.85;;;1.20;;
67819;SDS011;54618;52.018;5.576;2023-02-01T04:46:55;4.70;;;1.20;;
67819;SDS011;54618;52.018;5.576;2023-02-01T04:49:20;5.07;;;1.52;;
67819;SDS011;54618;52.018;5.576;2023-02-01T04:51:46;5.70;;;1.30;;
67819;SDS011;54618;52.018;5.576;2023-02-01T04:54:12;4.80;;;1.17;;
67819;SDS011;54618;52.018;5.576;2023-02-01T04:56:38;5.03;;;1.10;;
67819;SDS011;54618;52.018;5.576;2023-02-01T04:59:05;5.22;;;1.30;;
67819;SDS011;54618;52.018;5.576;2023-02-01T05:01:31;2.65;;;0.98;;
67819;SDS011;54618;52.018;5.576;2023-02-01T05:03:57;4.03;;;1.30;;
67819;SDS011;54618;52.018;5.576;2023-02-01T05:06:22;3.17;;;1.13;;
67819;SDS011;54618;52.018;5.576;2023-02-01T05:08:48;5.28;;;1.52;;
67819;SDS011;54618;52.018;5.576;2023-02-01T05:11:14;3.78;;;1.20;;
67819;SDS011;54618;52.018;5.576;2023-02-01T05:13:59;4.18;;;1.08;;
67819;SDS011;54618;52.018;5.576;2023-02-01T05:16:25;4.45;;;1.30;;
67819;SDS011;54618;52.018;5.576;2023-02-01T05:18:51;4.93;;;1.25;;
67819;SDS011;54618;52.018;5.576;2023-02-01T05:21:17;2.97;;;1.10;;
67819;SDS011;54618;52.018;5.576;2023-02-01T05:23:42;5.20;;;1.27;;
67819;SDS011;54618;52.018;5.576;2023-02-01T05:26:27;4.57;;;1.25;;
67819;SDS011;54618;52.018;5.576;2023-02-01T05:28:52;2.92;;;0.90;;
67819;SDS011;54618;52.018;5.576;2023-02-01T05:31:18;3.78;;;1.10;;
67819;SDS011;54618;52.018;5.576;2023-02-01T05:33:43;3.90;;;1.00;;
67819;SDS011;54618;52.018;5.576;2023-02-01T05:36:09;3.53;;;1.10;;
67819;SDS011;54618;52.018;5.576;2023-02-01T05:38:34;3.28;;;1.05;;
67819;SDS011;54618;52.018;5.576;2023-02-01T05:41:00;3.90;;;1.33;;
67819;SDS011;54618;52.018;5.576;2023-02-01T05:43:25;4.57;;;1.30;;
67819;SDS011;54618;52.018;5.576;2023-02-01T05:45:51;4.07;;;1.10;;
67819;SDS011;54618;52.018;5.576;2023-02-01T05:48:17;4.65;;;1.15;;
67819;SDS011;54618;52.018;5.576;2023-02-01T05:50:43;3.65;;;1.15;;
67819;SDS011;54618;52.018;5.576;2023-02-01T05:53:09;3.95;;;1.20;;
67819;SDS011;54618;52.018;5.576;2023-02-01T05:55:34;3.95;;;1.27;;
67819;SDS011;54618;52.018;5.576;2023-02-01T05:58:01;4.40;;;1.33;;
67819;SDS011;54618;52.018;5.576;2023-02-01T06:00:26;5.95;;;1.30;;
67819;SDS011;54618;52.018;5.576;2023-02-01T06:02:52;4.63;;;1.30;;
67819;SDS011;54618;52.018;5.576;2023-02-01T06:05:17;4.65;;;1.10;;
67819;SDS011;54618;52.018;5.576;2023-02-01T06:07:43;3.60;;;0.90;;
67819;SDS011;54618;52.018;5.576;2023-02-01T06:10:09;4.15;;;1.10;;
67819;SDS011;54618;52.018;5.576;2023-02-01T06:12:35;5.55;;;1.08;;
67819;SDS011;54618;52.018;5.576;2023-02-01T06:15:00;3.47;;;1.08;;
67819;SDS011;54618;52.018;5.576;2023-02-01T06:17:26;4.40;;;1.08;;
67819;SDS011;54618;52.018;5.576;2023-02-01T06:19:51;4.63;;;1.23;;
67819;SDS011;54618;52.018;5.576;2023-02-01T06:22:17;3.63;;;1.15;;
67819;SDS011;54618;52.018;5.576;2023-02-01T06:24:42;5.40;;;0.98;;
67819;SDS011;54618;52.018;5.576;2023-02-01T06:27:08;3.65;;;1.10;;
67819;SDS011;54618;52.018;5.576;2023-02-01T06:29:34;3.35;;;1.02;;
67819;SDS011;54618;52.018;5.576;2023-02-01T06:32:00;4.30;;;1.13;;
67819;SDS011;54618;52.018;5.576;2023-02-01T06:34:26;3.75;;;1.00;;
67819;SDS011;54618;52.018;5.576;2023-02-01T06:36:51;2.75;;;1.00;;
67819;SDS011;54618;52.018;5.576;2023-02-01T06:39:17;3.00;;;1.10;;
67819;SDS011;54618;52.018;5.576;2023-02-01T06:41:45;4.60;;;1.50;;
67819;SDS011;54618;52.018;5.576;2023-02-01T06:44:12;3.47;;;0.95;;
67819;SDS011;54618;52.018;5.576;2023-02-01T06:46:37;4.47;;;1.10;;
67819;SDS011;54618;52.018;5.576;2023-02-01T06:49:03;4.57;;;1.00;;
67819;SDS011;54618;52.018;5.576;2023-02-01T06:51:28;4.85;;;1.20;;
67819;SDS011;54618;52.018;5.576;2023-02-01T06:53:54;3.75;;;1.00;;
67819;SDS011;54618;52.018;5.576;2023-02-01T06:56:20;4.03;;;1.20;;
67819;SDS011;54618;52.018;5.576;2023-02-01T06:58:46;3.28;;;1.10;;
67819;SDS011;54618;52.018;5.576;2023-02-01T07:01:12;3.78;;;1.30;;
67819;SDS011;54618;52.018;5.576;2023-02-01T07:03:37;2.92;;;1.02;;
67819;SDS011;54618;52.018;5.576;2023-02-01T07:06:03;4.45;;;1.20;;
67819;SDS011;54618;52.018;5.576;2023-02-01T07:08:30;3.08;;;1.02;;
67819;SDS011;54618;52.018;5.576;2023-02-01T07:11:00;4.38;;;1.40;;
67819;SDS011;54618;52.018;5.576;2023-02-01T07:13:30;3.97;;;1.00;;
67819;SDS011;54618;52.018;5.576;2023-02-01T07:15:59;3.22;;;1.00;;
67819;SDS011;54618;52.018;5.576;2023-02-01T07:18:26;2.80;;;1.00;;
67819;SDS011;54618;52.018;5.576;2023-02-01T07:20:53;4.75;;;1.17;;
67819;SDS011;54618;52.018;5.576;2023-02-01T07:23:19;2.95;;;1.10;;
67819;SDS011;54618;52.018;5.576;2023-02-01T07:25:45;3.17;;;1.13;;
67819;SDS011;54618;52.018;5.576;2023-02-01T07:28:11;3.95;;;1.30;;
67819;SDS011;54618;52.018;5.576;2023-02-01T07:30:36;3.53;;;1.25;;
67819;SDS011;54618;52.018;5.576;2023-02-01T07:33:02;4.50;;;1.20;;
67819;SDS011;54618;52.018;5.576;2023-02-01T07:35:28;3.25;;;0.90;;
67819;SDS011;54618;52.018;5.576;2023-02-01T07:37:54;3.10;;;1.00;;
67819;SDS011;54618;52.018;5.576;2023-02-01T07:40:19;3.30;;;1.05;;
67819;SDS011;54618;52.018;5.576;2023-02-01T07:42:50;3.28;;;1.00;;
67819;SDS011;54618;52.018;5.576;2023-02-01T07:45:15;4.75;;;1.17;;
67819;SDS011;54618;52.018;5.576;2023-02-01T07:47:41;4.10;;;1.00;;
67819;SDS011;54618;52.018;5.576;2023-02-01T07:50:07;3.55;;;1.02;;
67819;SDS011;54618;52.018;5.576;2023-02-01T07:52:33;4.70;;;1.42;;
67819;SDS011;54618;52.018;5.576;2023-02-01T07:54:58;3.72;;;1.02;;
67819;SDS011;54618;52.018;5.576;2023-02-01T07:57:24;2.85;;;0.90;;
67819;SDS011;54618;52.018;5.576;2023-02-01T07:59:49;3.08;;;0.82;;
67819;SDS011;54618;52.018;5.576;2023-02-01T08:02:33;2.42;;;0.90;;
67819;SDS011;54618;52.018;5.576;2023-02-01T08:04:59;3.08;;;1.00;;
67819;SDS011;54618;52.018;5.576;2023-02-01T08:07:24;2.95;;;0.88;;
67819;SDS011;54618;52.018;5.576;2023-02-01T08:09:50;3.15;;;1.05;;
67819;SDS011;54618;52.018;5.576;2023-02-01T08:12:15;3.40;;;1.13;;
67819;SDS011;54618;52.018;5.576;2023-02-01T08:14:41;3.28;;;1.05;;
67819;SDS011;54618;52.018;5.576;2023-02-01T08:17:07;4.45;;;1.10;;
67819;SDS011;54618;52.018;5.576;2023-02-01T08:19:32;2.85;;;1.10;;
67819;SDS011;54618;52.018;5.576;2023-02-01T08:21:58;4.20;;;1.25;;
67819;SDS011;54618;52.018;5.576;2023-02-01T08:24:24;2.92;;;0.90;;
67819;SDS011;54618;52.018;5.576;2023-02-01T08:26:49;2.33;;;0.90;;
67819;SDS011;54618;52.018;5.576;2023-02-01T08:29:15;2.25;;;0.82;;
67819;SDS011;54618;52.018;5.576;2023-02-01T08:31:41;3.72;;;1.10;;
67819;SDS011;54618;52.018;5.576;2023-02-01T08:34:08;3.88;;;1.08;;
67819;SDS011;54618;52.018;5.576;2023-02-01T08:36:33;5.60;;;1.50;;
67819;SDS011;54618;52.018;5.576;2023-02-01T08:38:59;3.67;;;0.90;;
67819;SDS011;54618;52.018;5.576;2023-02-01T08:41:26;4.97;;;1.35;;
67819;SDS011;54618;52.018;5.576;2023-02-01T08:43:54;3.55;;;0.93;;
67819;SDS011;54618;52.018;5.576;2023-02-01T08:46:20;3.50;;;1.02;;
67819;SDS011;54618;52.018;5.576;2023-02-01T08:48:47;4.35;;;0.90;;
67819;SDS011;54618;52.018;5.576;2023-02-01T08:51:13;3.63;;;1.20;;
67819;SDS011;54618;52.018;5.576;2023-02-01T08:53:40;3.30;;;1.00;;
67819;SDS011;54618;52.018;5.576;2023-02-01T08:56:06;3.53;;;1.00;;
67819;SDS011;54618;52.018;5.576;2023-02-01T08:58:32;2.58;;;0.88;;
67819;SDS011;54618;52.018;5.576;2023-02-01T09:01:09;4.45;;;1.08;;
67819;SDS011;54618;52.018;5.576;2023-02-01T09:03:37;3.13;;;0.90;;
67819;SDS011;54618;52.018;5.576;2023-02-01T09:06:03;4.82;;;1.20;;
67819;SDS011;54618;52.018;5.576;2023-02-01T09:08:30;2.42;;;0.85;;
67819;SDS011;54618;52.018;5.576;2023-02-01T09:11:03;5.32;;;1.10;;
67819;SDS011;54618;52.018;5.576;2023-02-01T09:13:30;3.33;;;0.93;;
67819;SDS011;54618;52.018;5.576;2023-02-01T09:15:56;4.38;;;1.10;;
67819;SDS011;54618;52.018;5.576;2023-02-01T09:18:24;2.72;;;0.90;;
67819;SDS011;54618;52.018;5.576;2023-02-01T09:20:50;4.05;;;1.02;;
67819;SDS011;54618;52.018;5.576;2023-02-01T09:23:16;4.35;;;0.93;;
67819;SDS011;54618;52.018;5.576;2023-02-01T09:25:41;4.80;;;1.10;;
67819;SDS011;54618;52.018;5.576;2023-02-01T09:28:07;3.22;;;0.98;;
67819;SDS011;54618;52.018;5.576;2023-02-01T09:30:34;3.28;;;1.02;;
67819;SDS011;54618;52.018;5.576;2023-02-01T09:33:01;2.30;;;1.00;;
67819;SDS011;54618;52.018;5.576;2023-02-01T09:35:26;2.75;;;0.90;;
67819;SDS011;54618;52.018;5.576;2023-02-01T09:37:52;3.30;;;1.20;;
67819;SDS011;54618;52.018;5.576;2023-02-01T09:40:18;3.95;;;1.00;;
67819;SDS011;54618;52.018;5.576;2023-02-01T09:43:07;3.08;;;1.08;;
67819;SDS011;54618;52.018;5.576;2023-02-01T09:48:20;3.55;;;0.90;;
67819;SDS011;54618;52.018;5.576;2023-02-01T09:50:56;4.07;;;1.20;;
67819;SDS011;54618;52.018;5.576;2023-02-01T09:55:54;4.95;;;1.33;;
67819;SDS011;54618;52.018;5.576;2023-02-01T09:58:27;4.40;;;1.30;;
67819;SDS011;54618;52.018;5.576;2023-02-01T10:01:01;3.78;;;1.20;;
67819;SDS011;54618;52.018;5.576;2023-02-01T10:03:29;4.85;;;1.05;;
67819;SDS011;54618;52.018;5.576;2023-02-01T10:08:55;3.60;;;1.10;;
67819;SDS011;54618;52.018;5.576;2023-02-01T10:11:30;3.70;;;1.17;;
67819;SDS011;54618;52.018;5.576;2023-02-01T10:25:22;2.72;;;0.88;;
67819;SDS011;54618;52.018;5.576;2023-02-01T10:27:55;3.15;;;1.15;;
67819;SDS011;54618;52.018;5.576;2023-02-01T10:30:25;5.45;;;1.20;;
67819;SDS011;54618;52.018;5.576;2023-02-01T10:33:07;4.43;;;0.93;;
67819;SDS011;54618;52.018;5.576;2023-02-01T10:35:52;3.55;;;1.02;;
67819;SDS011;54618;52.018;5.576;2023-02-01T10:38:27;5.07;;;1.20;;
67819;SDS011;54618;52.018;5.576;2023-02-01T10:40:55;4.07;;;1.10;;
67819;SDS011;54618;52.018;5.576;2023-02-01T10:43:26;3.72;;;1.10;;
67819;SDS011;54618;52.018;5.576;2023-02-01T10:45:52;6.40;;;1.30;;
67819;SDS011;54618;52.018;5.576;2023-02-01T10:48:17;3.40;;;1.00;;
67819;SDS011;54618;52.018;5.576;2023-02-01T10:50:51;2.42;;;0.85;;
67819;SDS011;54618;52.018;5.576;2023-02-01T10:55:50;5.97;;;1.23;;
67819;SDS011;54618;52.018;5.576;2023-02-01T10:58:29;2.90;;;1.00;;
67819;SDS011;54618;52.018;5.576;2023-02-01T11:00:57;6.45;;;1.25;;
67819;SDS011;54618;52.018;5.576;2023-02-01T11:05:56;4.57;;;1.08;;
67819;SDS011;54618;52.018;5.576;2023-02-01T11:08:22;4.25;;;1.27;;
67819;SDS011;54618;52.018;5.576;2023-02-01T11:10:49;7.18;;;1.20;;
67819;SDS011;54618;52.018;5.576;2023-02-01T11:13:31;3.83;;;1.17;;
67819;SDS011;54618;52.018;5.576;2023-02-01T11:16:03;3.28;;;1.10;;
67819;SDS011;54618;52.018;5.576;2023-02-01T11:18:31;6.78;;;1.40;;
67819;SDS011;54618;52.018;5.576;2023-02-01T11:21:00;5.00;;;1.20;;
67819;SDS011;54618;52.018;5.576;2023-02-01T11:23:27;4.72;;;1.10;;
67819;SDS011;54618;52.018;5.576;2023-02-01T11:25:58;4.65;;;1.20;;
67819;SDS011;54618;52.018;5.576;2023-02-01T11:28:35;5.22;;;1.25;;
67819;SDS011;54618;52.018;5.576;2023-02-01T11:31:05;5.40;;;1.55;;
67819;SDS011;54618;52.018;5.576;2023-02-01T11:33:35;4.55;;;1.23;;
67819;SDS011;54618;52.018;5.576;2023-02-01T11:36:15;5.50;;;1.23;;
67819;SDS011;54618;52.018;5.576;2023-02-01T11:39:07;3.97;;;1.20;;
67819;SDS011;54618;52.018;5.576;2023-02-01T11:41:43;3.95;;;1.15;;
67819;SDS011;54618;52.018;5.576;2023-02-01T11:44:37;4.55;;;1.23;;
67819;SDS011;54618;52.018;5.576;2023-02-01T11:49:53;5.03;;;1.27;;
67819;SDS011;54618;52.018;5.576;2023-02-01T12:00:42;4.60;;;1.50;;
67819;SDS011;54618;52.018;5.576;2023-02-01T12:03:31;5.55;;;1.40;;
67819;SDS011;54618;52.018;5.576;2023-02-01T12:07:10;7.13;;;1.40;;
67819;SDS011;54618;52.018;5.576;2023-02-01T12:09:06;5.18;;;1.50;;
67819;SDS011;54618;52.018;5.576;2023-02-01T12:12:06;4.43;;;1.30;;
67819;SDS011;54618;52.018;5.576;2023-02-01T12:28:14;6.30;;;1.60;;
67819;SDS011;54618;52.018;5.576;2023-02-01T12:33:50;5.53;;;1.40;;
67819;SDS011;54618;52.018;5.576;2023-02-01T12:36:46;5.68;;;1.20;;
67819;SDS011;54618;52.018;5.576;2023-02-01T12:39:32;4.93;;;1.40;;
67819;SDS011;54618;52.018;5.576;2023-02-01T12:42:09;6.47;;;1.42;;
67819;SDS011;54618;52.018;5.576;2023-02-01T12:45:01;4.35;;;1.25;;
67819;SDS011;54618;52.018;5.576;2023-02-01T12:50:15;4.90;;;1.50;;
67819;SDS011;54618;52.018;5.576;2023-02-01T12:52:48;3.88;;;1.20;;
67819;SDS011;54618;52.018;5.576;2023-02-01T12:55:22;9.13;;;1.35;;
67819;SDS011;54618;52.018;5.576;2023-02-01T12:57:51;3.80;;;1.17;;
67819;SDS011;54618;52.018;5.576;2023-02-01T13:00:35;3.88;;;1.30;;
67819;SDS011;54618;52.018;5.576;2023-02-01T13:03:34;6.47;;;1.20;;
67819;SDS011;54618;52.018;5.576;2023-02-01T13:06:22;5.97;;;1.55;;
67819;SDS011;54618;52.018;5.576;2023-02-01T13:11:57;5.60;;;1.33;;
67819;SDS011;54618;52.018;5.576;2023-02-01T13:14:42;5.55;;;1.63;;
67819;SDS011;54618;52.018;5.576;2023-02-01T13:19:58;5.68;;;1.60;;
67819;SDS011;54618;52.018;5.576;2023-02-01T13:22:35;7.75;;;1.85;;
67819;SDS011;54618;52.018;5.576;2023-02-01T13:25:17;4.95;;;1.67;;
67819;SDS011;54618;52.018;5.576;2023-02-01T13:27:56;5.60;;;1.60;;
67819;SDS011;54618;52.018;5.576;2023-02-01T13:30:29;6.65;;;1.75;;
67819;SDS011;54618;52.018;5.576;2023-02-01T13:33:35;6.63;;;1.50;;
67819;SDS011;54618;52.018;5.576;2023-02-01T13:41:41;4.65;;;1.42;;
67819;SDS011;54618;52.018;5.576;2023-02-01T13:44:11;8.95;;;1.98;;
67819;SDS011;54618;52.018;5.576;2023-02-01T13:46:40;7.60;;;1.50;;
67819;SDS011;54618;52.018;5.576;2023-02-01T13:49:18;4.93;;;1.50;;
67819;SDS011;54618;52.018;5.576;2023-02-01T13:51:47;5.93;;;1.80;;
67819;SDS011;54618;52.018;5.576;2023-02-01T13:56:55;4.72;;;1.42;;
67819;SDS011;54618;52.018;5.576;2023-02-01T14:05:11;5.53;;;1.63;;
67819;SDS011;54618;52.018;5.576;2023-02-01T14:23:40;6.40;;;1.73;;
67819;SDS011;54618;52.018;5.576;2023-02-01T14:26:09;8.30;;;1.77;;
67819;SDS011;54618;52.018;5.576;2023-02-01T14:28:45;8.77;;;1.75;;
67819;SDS011;54618;52.018;5.576;2023-02-01T14:31:15;6.13;;;1.80;;
67819;SDS011;54618;52.018;5.576;2023-02-01T14:33:56;5.88;;;1.95;;
67819;SDS011;54618;52.018;5.576;2023-02-01T14:36:26;6.50;;;1.60;;
67819;SDS011;54618;52.018;5.576;2023-02-01T14:39:03;4.70;;;1.60;;
67819;SDS011;54618;52.018;5.576;2023-02-01T14:41:30;5.57;;;1.80;;
67819;SDS011;54618;52.018;5.576;2023-02-01T14:49:29;5.18;;;1.65;;
67819;SDS011;54618;52.018;5.576;2023-02-01T14:51:56;5.97;;;1.17;;
67819;SDS011;54618;52.018;5.576;2023-02-01T14:54:23;6.00;;;1.85;;
67819;SDS011;54618;52.018;5.576;2023-02-01T14:56:50;5.13;;;1.33;;
67819;SDS011;54618;52.018;5.576;2023-02-01T14:59:17;5.20;;;1.70;;
67819;SDS011;54618;52.018;5.576;2023-02-01T15:01:49;4.57;;;1.48;;
67819;SDS011;54618;52.018;5.576;2023-02-01T15:04:18;5.35;;;1.58;;
67819;SDS011;54618;52.018;5.576;2023-02-01T15:09:32;4.68;;;1.70;;
67819;SDS011;54618;52.018;5.576;2023-02-01T15:14:36;4.40;;;1.20;;
67819;SDS011;54618;52.018;5.576;2023-02-01T15:17:31;5.45;;;1.63;;
67819;SDS011;54618;52.018;5.576;2023-02-01T15:20:03;5.60;;;1.80;;
67819;SDS011;54618;52.018;5.576;2023-02-01T15:22:40;6.50;;;1.65;;
67819;SDS011;54618;52.018;5.576;2023-02-01T15:25:17;5.93;;;1.80;;
67819;SDS011;54618;52.018;5.576;2023-02-01T15:27:48;4.32;;;1.35;;
67819;SDS011;54618;52.018;5.576;2023-02-01T15:30:51;5.38;;;1.50;;
67819;SDS011;54618;52.018;5.576;2023-02-01T15:33:17;6.50;;;1.50;;
67819;SDS011;54618;52.018;5.576;2023-02-01T15:35:54;5.70;;;1.50;;
67819;SDS011;54618;52.018;5.576;2023-02-01T15:41:18;5.35;;;1.35;;
67819;SDS011;54618;52.018;5.576;2023-02-01T15:46:30;6.15;;;1.40;;
67819;SDS011;54618;52.018;5.576;2023-02-01T15:48:58;7.47;;;1.60;;
67819;SDS011;54618;52.018;5.576;2023-02-01T15:51:25;4.30;;;1.58;;
67819;SDS011;54618;52.018;5.576;2023-02-01T15:56:23;5.40;;;1.40;;
67819;SDS011;54618;52.018;5.576;2023-02-01T15:58:57;4.32;;;1.40;;
67819;SDS011;54618;52.018;5.576;2023-02-01T16:01:26;4.28;;;1.30;;
67819;SDS011;54618;52.018;5.576;2023-02-01T16:04:02;6.40;;;1.35;;
67819;SDS011;54618;52.018;5.576;2023-02-01T16:06:31;5.65;;;1.60;;
67819;SDS011;54618;52.018;5.576;2023-02-01T16:11:27;5.65;;;1.40;;
67819;SDS011;54618;52.018;5.576;2023-02-01T16:13:57;5.82;;;1.55;;
67819;SDS011;54618;52.018;5.576;2023-02-01T16:16:24;5.65;;;1.70;;
67819;SDS011;54618;52.018;5.576;2023-02-01T16:18:51;5.35;;;1.58;;
67819;SDS011;54618;52.018;5.576;2023-02-01T16:21:16;8.10;;;2.00;;
67819;SDS011;54618;52.018;5.576;2023-02-01T16:23:42;6.47;;;1.70;;
67819;SDS011;54618;52.018;5.576;2023-02-01T16:26:08;7.28;;;1.80;;
67819;SDS011;54618;52.018;5.576;2023-02-01T16:28:33;7.18;;;1.67;;
67819;SDS011;54618;52.018;5.576;2023-02-01T16:30:59;7.20;;;1.60;;
67819;SDS011;54618;52.018;5.576;2023-02-01T16:33:26;5.05;;;1.25;;
67819;SDS011;54618;52.018;5.576;2023-02-01T16:35:51;4.80;;;1.55;;
67819;SDS011;54618;52.018;5.576;2023-02-01T16:38:20;8.88;;;1.48;;
67819;SDS011;54618;52.018;5.576;2023-02-01T16:40:47;7.43;;;1.38;;
67819;SDS011;54618;52.018;5.576;2023-02-01T16:43:21;8.45;;;1.50;;
67819;SDS011;54618;52.018;5.576;2023-02-01T16:45:49;6.32;;;1.63;;
67819;SDS011;54618;52.018;5.576;2023-02-01T16:50:51;6.90;;;1.70;;
67819;SDS011;54618;52.018;5.576;2023-02-01T16:53:19;4.97;;;1.42;;
67819;SDS011;54618;52.018;5.576;2023-02-01T16:55:46;5.63;;;1.55;;
67819;SDS011;54618;52.018;5.576;2023-02-01T16:58:14;7.30;;;1.67;;
67819;SDS011;54618;52.018;5.576;2023-02-01T17:00:40;7.60;;;1.42;;
67819;SDS011;54618;52.018;5.576;2023-02-01T17:03:06;5.22;;;1.30;;
67819;SDS011;54618;52.018;5.576;2023-02-01T17:05:32;6.65;;;1.80;;
67819;SDS011;54618;52.018;5.576;2023-02-01T17:07:59;5.90;;;1.50;;
67819;SDS011;54618;52.018;5.576;2023-02-01T17:10:28;5.10;;;1.48;;
67819;SDS011;54618;52.018;5.576;2023-02-01T17:12:55;5.53;;;1.30;;
67819;SDS011;54618;52.018;5.576;2023-02-01T17:15:22;8.27;;;1.50;;
67819;SDS011;54618;52.018;5.576;2023-02-01T17:17:48;7.68;;;1.60;;
67819;SDS011;54618;52.018;5.576;2023-02-01T17:20:19;8.45;;;1.80;;
67819;SDS011;54618;52.018;5.576;2023-02-01T17:22:47;8.25;;;1.58;;